Springville, AL (35146)

9:31 AM CST on February 27, 2017 (GMT -0600)
Simmons Mt. | | Change Station

Elev 1109 ft 33.73 °N, 86.49 °W | Updated 6 seconds ago

Rain
Rain
43.2 °F
Feels Like 43 °F
N
1.0
Wind Variable Wind from East
Gusts 4.0 mph

Today
High -- | Low -- °F
--% Chance of Precip.
Yesterday
High -- | Low -- °F
Precip. -- in
Pressure 30.35 in
Visibility 3.0 miles
Clouds Few 5500 ft
Overcast 8000 ft
Windchill 43 °F
Dew Point 41 °F
Humidity 93%
Rainfall 0.29 in
Snow Depth Not available.
6:16 AM 5:41 PM
New Moon, 1% visible
METAR KBHM 271453Z 04005KT 3SM RA BR FEW055 OVC080 08/06 A3035 RMK AO2 WSHFT 1354 SLP275 P0015 60021 T00780061 53060
Pressure 30.35 in
Visibility 3.0 miles
Clouds Few 5500 ft
Overcast 8000 ft
Windchill 43 °F
Dew Point 41 °F
Humidity 93%
Rainfall 0.29 in
Snow Depth Not available.
6:16 AM 5:41 PM
New Moon, 1% visible
METAR KBHM 271453Z 04005KT 3SM RA BR FEW055 OVC080 08/06 A3035 RMK AO2 WSHFT 1354 SLP275 P0015 60021 T00780061 53060

Get Your Daily Forecast Email!

Thanks for signing up!

Be on the lookout for a verification email in your inbox.

You'll start receiving the daily forecast at 8 AM.

×

10-Day Weather Forecast

Almanac

Astronomy

Feb. 27, 2017 Rise Set
Actual Time
Civil Twilight
Nautical Twilight
Astronomical Twilight
Moon
Length of Visible Light
Length of Day
Tomorrow will be .
, % of the Moon is Illuminated

Today's Extremes

State Highs State Lows

Community

WunderPhotos

Upload Photos

1,962,540 photos uploaded!

WunderBlog® & News

Nearby

Air Quality

  Air Quality AQ Index Pollutant
Not available.

Snow Depth

Station Depth Elevation

Earthquake Activity

City Distance Mag. Time & Date
Minimum magnitude displayed is 2.5.

Coastal Water Temperatures

Place Temperature

Stations

Nearby Weather Stations

Station Location Temp. Windchill Dew Point Humidity Wind Precip. Elev Updated Type
                   

Watches & Warnings

There are currently no watches in effect.